createdAt,value
2023-01-29T00:01:26.421Z,86.51
2023-01-29T00:03:53.971Z,86.44
2023-01-29T00:06:23.313Z,86.34
2023-01-29T00:08:50.838Z,86.24
2023-01-29T00:11:18.385Z,86.29
2023-01-29T00:13:45.890Z,86.16
2023-01-29T00:16:13.384Z,86.21
2023-01-29T00:18:41.024Z,86.17
2023-01-29T00:21:08.558Z,86.19
2023-01-29T00:23:36.040Z,86.30
2023-01-29T00:26:03.583Z,86.42
2023-01-29T00:28:31.233Z,86.68
2023-01-29T00:30:58.905Z,86.72
2023-01-29T00:33:26.464Z,86.76
2023-01-29T00:35:54.042Z,86.84
2023-01-29T00:38:21.566Z,86.89
2023-01-29T00:41:22.074Z,86.92
2023-01-29T00:44:08.284Z,87.10
2023-01-29T00:46:35.995Z,87.11
2023-01-29T00:49:03.575Z,87.17
2023-01-29T00:51:31.117Z,87.20
2023-01-29T00:53:58.670Z,87.16
2023-01-29T00:56:26.174Z,87.12
2023-01-29T00:58:53.666Z,87.29
2023-01-29T01:01:41.266Z,86.64
2023-01-29T01:04:08.895Z,86.47
2023-01-29T01:06:36.464Z,86.68
2023-01-29T01:09:22.718Z,86.96
2023-01-29T01:11:50.282Z,87.50
2023-01-29T01:14:17.835Z,87.99
2023-01-29T01:16:45.440Z,88.37
2023-01-29T01:19:13.671Z,88.39
2023-01-29T01:21:45.371Z,88.38
2023-01-29T01:24:13.001Z,88.37
2023-01-29T01:26:40.620Z,88.35
2023-01-29T01:29:08.101Z,88.32
2023-01-29T01:31:35.695Z,88.22
2023-01-29T01:34:03.300Z,87.80
2023-01-29T01:36:32.365Z,87.60
2023-01-29T01:39:00.112Z,87.12
2023-01-29T01:41:27.758Z,87.04
2023-01-29T01:43:55.652Z,87.33
2023-01-29T01:46:23.692Z,87.50
2023-01-29T01:48:51.172Z,87.63
2023-01-29T01:51:18.669Z,87.70
2023-01-29T01:53:46.275Z,87.70
2023-01-29T01:56:13.806Z,87.73
2023-01-29T01:58:41.305Z,87.70
2023-01-29T02:01:08.961Z,87.76
2023-01-29T02:03:55.229Z,87.70
2023-01-29T02:06:41.888Z,87.71
2023-01-29T02:09:28.453Z,87.69
2023-01-29T02:11:56.009Z,87.66
2023-01-29T02:14:23.626Z,87.61
2023-01-29T02:16:51.120Z,87.44
2023-01-29T02:19:18.995Z,87.48
2023-01-29T02:21:46.600Z,87.49
2023-01-29T02:24:14.284Z,87.42
2023-01-29T02:26:41.976Z,87.49
2023-01-29T02:29:26.962Z,87.44
2023-01-29T02:31:54.552Z,87.48
2023-01-29T02:34:22.240Z,87.42
2023-01-29T02:36:49.769Z,87.48
2023-01-29T02:39:17.393Z,87.49
2023-01-29T02:41:44.989Z,87.22
2023-01-29T02:44:12.475Z,86.76
2023-01-29T02:46:40.140Z,86.54
2023-01-29T02:49:07.647Z,86.10
2023-01-29T02:51:35.419Z,85.68
2023-01-29T02:54:02.995Z,85.60
2023-01-29T02:56:31.300Z,85.60
2023-01-29T02:58:58.840Z,85.56
2023-01-29T03:01:26.499Z,85.77
2023-01-29T03:03:54.079Z,85.88
2023-01-29T03:06:22.258Z,85.92
2023-01-29T03:08:50.205Z,85.95
2023-01-29T03:11:17.804Z,86.08
2023-01-29T03:13:45.317Z,86.16
2023-01-29T03:16:12.870Z,86.13
2023-01-29T03:18:46.109Z,86.19
2023-01-29T03:21:32.971Z,86.23
2023-01-29T03:24:19.461Z,86.30
2023-01-29T03:27:05.736Z,86.27
2023-01-29T03:29:52.412Z,85.93
2023-01-29T03:32:19.960Z,85.79
2023-01-29T03:34:47.478Z,85.70
2023-01-29T03:37:15.213Z,85.56
2023-01-29T03:39:42.758Z,85.52
2023-01-29T03:42:10.505Z,85.66
2023-01-29T03:44:40.279Z,85.61
2023-01-29T03:47:08.074Z,85.65
2023-01-29T03:49:35.562Z,85.67
2023-01-29T03:52:03.125Z,86.10
2023-01-29T03:54:30.708Z,86.43
2023-01-29T03:56:58.262Z,86.67
2023-01-29T03:59:25.728Z,86.89
2023-01-29T04:01:53.259Z,86.96
2023-01-29T04:04:20.848Z,87.10
2023-01-29T04:06:48.665Z,87.23
2023-01-29T04:09:16.276Z,87.46
2023-01-29T04:11:43.901Z,87.52
2023-01-29T04:14:11.392Z,87.47
2023-01-29T04:16:38.950Z,87.41
2023-01-29T04:19:06.478Z,87.32
2023-01-29T04:21:34.208Z,87.11
2023-01-29T04:24:01.784Z,86.93
2023-01-29T04:26:29.289Z,87.00
2023-01-29T04:28:56.829Z,87.10
2023-01-29T04:31:24.498Z,87.16
2023-01-29T04:33:52.058Z,87.19
2023-01-29T04:36:19.574Z,87.10
2023-01-29T04:38:47.153Z,87.17
2023-01-29T04:41:14.717Z,87.21
2023-01-29T04:43:42.204Z,87.19
2023-01-29T04:46:09.713Z,86.77
2023-01-29T04:48:37.293Z,86.29
2023-01-29T04:51:05.438Z,86.01
2023-01-29T04:53:33.026Z,85.86
2023-01-29T04:56:00.593Z,85.71
2023-01-29T04:58:28.121Z,85.64
2023-01-29T05:00:55.851Z,85.21
2023-01-29T05:03:23.358Z,85.22
2023-01-29T05:05:50.876Z,85.06
2023-01-29T05:08:18.691Z,84.93
2023-01-29T05:10:46.221Z,85.08
2023-01-29T05:13:13.705Z,85.04
2023-01-29T05:15:41.522Z,85.03
2023-01-29T05:18:09.158Z,84.84
2023-01-29T05:20:36.832Z,84.79
2023-01-29T05:23:04.630Z,84.22
2023-01-29T05:25:32.100Z,83.73
2023-01-29T05:28:16.277Z,83.56
2023-01-29T05:30:44.388Z,83.62
2023-01-29T05:33:11.967Z,83.68
2023-01-29T05:35:39.547Z,83.57
2023-01-29T05:38:07.083Z,83.85
2023-01-29T05:40:34.735Z,83.99
2023-01-29T05:43:02.549Z,83.68
2023-01-29T05:45:30.085Z,83.46
2023-01-29T05:47:57.878Z,83.66
2023-01-29T05:50:25.447Z,83.38
2023-01-29T05:52:52.925Z,83.28
2023-01-29T05:55:20.492Z,83.01
2023-01-29T05:57:48.030Z,82.97
2023-01-29T06:00:15.831Z,83.09
2023-01-29T06:02:43.540Z,83.24
2023-01-29T06:05:11.414Z,83.10
2023-01-29T06:07:41.740Z,83.37
2023-01-29T06:10:11.581Z,83.57
2023-01-29T06:12:39.132Z,83.60
2023-01-29T06:15:06.667Z,83.41
2023-01-29T06:17:34.162Z,83.38
2023-01-29T06:20:01.755Z,83.24
2023-01-29T06:22:29.272Z,83.36
2023-01-29T06:24:56.864Z,83.62
2023-01-29T06:27:24.666Z,83.69
2023-01-29T06:29:52.181Z,83.35
2023-01-29T06:32:19.891Z,83.06
2023-01-29T06:34:49.673Z,82.94
2023-01-29T06:37:17.340Z,82.89
2023-01-29T06:39:44.871Z,82.94
2023-01-29T06:42:12.484Z,82.97
2023-01-29T06:44:39.977Z,82.94
2023-01-29T06:47:07.632Z,82.96
2023-01-29T06:49:35.355Z,82.95
2023-01-29T06:52:02.888Z,82.63
2023-01-29T06:54:30.418Z,82.72
2023-01-29T06:56:58.087Z,82.65
2023-01-29T06:59:25.602Z,82.55
2023-01-29T07:01:53.226Z,82.51
2023-01-29T07:04:20.811Z,82.51
2023-01-29T07:06:48.299Z,82.67
2023-01-29T07:09:15.849Z,82.48
2023-01-29T07:11:43.364Z,82.52
2023-01-29T07:14:10.888Z,82.49
2023-01-29T07:16:38.416Z,82.44
2023-01-29T07:19:06.295Z,81.91
2023-01-29T07:21:33.798Z,81.65
2023-01-29T07:24:01.522Z,81.56
2023-01-29T07:26:29.301Z,81.45
2023-01-29T07:28:56.839Z,81.23
2023-01-29T07:31:24.416Z,81.08
2023-01-29T07:33:52.135Z,81.18
2023-01-29T07:36:19.671Z,81.33
2023-01-29T07:38:47.179Z,81.75
2023-01-29T07:41:14.794Z,81.36
2023-01-29T07:43:42.323Z,81.48
2023-01-29T07:46:09.932Z,81.75
2023-01-29T07:48:37.692Z,81.82
2023-01-29T07:51:05.226Z,82.81
2023-01-29T07:53:32.949Z,83.70
2023-01-29T07:56:00.507Z,84.03
2023-01-29T07:58:28.042Z,84.52
2023-01-29T08:00:55.643Z,84.82
2023-01-29T08:03:23.322Z,85.00
2023-01-29T08:05:51.130Z,84.85
2023-01-29T08:08:19.438Z,84.51
2023-01-29T08:10:47.098Z,84.45
2023-01-29T08:13:14.848Z,84.22
2023-01-29T08:15:42.351Z,84.47
2023-01-29T08:18:09.950Z,84.68
2023-01-29T08:20:37.484Z,84.48
2023-01-29T08:23:05.033Z,84.53
2023-01-29T08:25:32.679Z,84.35
2023-01-29T08:28:00.723Z,84.19
2023-01-29T08:30:28.473Z,83.92
2023-01-29T08:32:56.437Z,83.88
2023-01-29T08:35:24.103Z,84.06
2023-01-29T08:37:51.616Z,83.76
2023-01-29T08:40:19.468Z,83.74
2023-01-29T08:42:47.182Z,83.82
2023-01-29T08:45:14.709Z,83.89
2023-01-29T08:47:42.226Z,83.72
2023-01-29T08:50:09.704Z,83.42
2023-01-29T08:52:37.259Z,83.55
2023-01-29T08:55:04.928Z,82.91
2023-01-29T08:57:32.406Z,82.60
2023-01-29T08:59:59.996Z,82.59
2023-01-29T09:02:27.594Z,81.82
2023-01-29T09:04:55.934Z,80.91
2023-01-29T09:07:23.448Z,81.01
2023-01-29T09:09:51.034Z,80.78
2023-01-29T09:12:18.767Z,80.76
2023-01-29T09:14:46.319Z,81.78
2023-01-29T09:17:14.067Z,80.24
2023-01-29T09:19:41.583Z,80.08
2023-01-29T09:22:11.004Z,80.01
2023-01-29T09:24:40.515Z,80.25
2023-01-29T09:27:10.007Z,79.56
2023-01-29T09:29:37.684Z,78.98
2023-01-29T09:32:05.219Z,79.54
2023-01-29T09:34:34.685Z,79.13
2023-01-29T09:37:02.260Z,78.66
2023-01-29T09:39:30.085Z,79.10
2023-01-29T09:41:57.746Z,78.83
2023-01-29T09:44:25.342Z,78.91
2023-01-29T09:46:52.912Z,78.61
2023-01-29T09:49:20.496Z,78.92
2023-01-29T09:51:48.082Z,79.15
2023-01-29T09:54:15.613Z,79.30
2023-01-29T09:56:43.111Z,78.87
2023-01-29T09:59:10.589Z,77.83
2023-01-29T10:01:38.484Z,77.79
2023-01-29T10:04:06.088Z,77.83
2023-01-29T10:06:33.705Z,78.14
2023-01-29T10:09:01.448Z,77.37
2023-01-29T10:11:29.111Z,76.91
2023-01-29T10:13:56.776Z,77.14
2023-01-29T10:16:24.342Z,77.29
2023-01-29T10:18:51.835Z,77.57
2023-01-29T10:21:19.311Z,77.21
2023-01-29T10:23:46.866Z,77.47
2023-01-29T10:26:14.439Z,77.65
2023-01-29T10:28:46.417Z,77.80
2023-01-29T10:31:14.728Z,77.88
2023-01-29T10:33:49.018Z,77.79
2023-01-29T10:36:26.950Z,77.91
2023-01-29T10:38:56.000Z,77.60
2023-01-29T10:41:23.886Z,77.70
2023-01-29T10:43:51.460Z,77.70
2023-01-29T10:46:18.937Z,76.85
2023-01-29T10:48:46.492Z,76.87
2023-01-29T10:51:14.771Z,77.03
2023-01-29T10:53:42.355Z,77.59
2023-01-29T10:56:21.963Z,76.60
2023-01-29T10:58:50.868Z,76.18
2023-01-29T11:01:18.446Z,76.52
2023-01-29T11:03:46.005Z,76.21
2023-01-29T11:06:14.035Z,76.26
2023-01-29T11:08:41.700Z,76.71
2023-01-29T11:11:12.151Z,76.68
2023-01-29T11:13:39.743Z,75.70
2023-01-29T11:16:07.346Z,75.57
2023-01-29T11:18:34.874Z,75.78
2023-01-29T11:21:02.980Z,75.79
2023-01-29T11:23:30.593Z,76.33
2023-01-29T11:25:58.459Z,76.64
2023-01-29T11:28:25.986Z,76.33
2023-01-29T11:30:53.593Z,75.94
2023-01-29T11:33:21.297Z,75.58
2023-01-29T11:35:48.848Z,75.74
2023-01-29T11:38:16.510Z,75.94
2023-01-29T11:40:44.061Z,76.24
2023-01-29T11:43:11.911Z,76.43
2023-01-29T11:45:39.396Z,76.53
2023-01-29T11:48:06.886Z,76.54
2023-01-29T11:50:34.448Z,76.42
2023-01-29T11:53:01.979Z,76.27
2023-01-29T11:55:33.070Z,76.63
2023-01-29T11:58:05.580Z,76.64
2023-01-29T12:00:33.651Z,76.41
2023-01-29T12:03:01.149Z,76.55
2023-01-29T12:05:29.132Z,76.73
2023-01-29T12:07:56.736Z,76.78
2023-01-29T12:10:24.223Z,76.57
2023-01-29T12:12:51.742Z,76.60
2023-01-29T12:15:19.714Z,76.77
2023-01-29T12:17:47.430Z,76.24
2023-01-29T12:20:15.362Z,76.24
2023-01-29T12:22:43.222Z,76.67
2023-01-29T12:25:10.704Z,76.96
2023-01-29T12:27:38.266Z,77.27
2023-01-29T12:30:06.296Z,77.41
2023-01-29T12:32:33.838Z,77.63
2023-01-29T12:35:01.657Z,77.95
2023-01-29T12:37:29.168Z,78.15
2023-01-29T12:39:56.714Z,78.07
2023-01-29T12:42:24.299Z,78.28
2023-01-29T12:44:51.896Z,78.51
2023-01-29T12:47:20.910Z,78.47
2023-01-29T12:49:53.670Z,78.18
2023-01-29T12:52:21.699Z,77.89
2023-01-29T12:54:49.406Z,77.86
2023-01-29T12:57:18.208Z,78.01
2023-01-29T12:59:46.491Z,78.12
2023-01-29T13:02:16.114Z,78.00
2023-01-29T13:04:43.821Z,77.96
2023-01-29T13:07:12.306Z,78.00
2023-01-29T13:09:39.874Z,78.06
2023-01-29T13:12:07.480Z,77.81
2023-01-29T13:14:34.985Z,77.27
2023-01-29T13:17:02.565Z,77.67
2023-01-29T13:19:30.359Z,77.75
2023-01-29T13:21:58.102Z,77.67
2023-01-29T13:24:25.613Z,77.41
2023-01-29T13:26:53.263Z,76.68
2023-01-29T13:29:20.766Z,76.36
2023-01-29T13:31:48.383Z,76.34
2023-01-29T13:34:16.020Z,76.40
2023-01-29T13:36:43.871Z,76.48
2023-01-29T13:39:11.420Z,76.61
2023-01-29T13:41:39.044Z,76.58
2023-01-29T13:44:07.433Z,77.60
2023-01-29T13:46:35.286Z,76.28
2023-01-29T13:49:05.121Z,75.77
2023-01-29T13:51:32.631Z,75.72
2023-01-29T13:54:03.289Z,75.73
2023-01-29T13:56:31.260Z,75.80
2023-01-29T13:58:58.896Z,75.88
2023-01-29T14:01:26.562Z,75.99
2023-01-29T14:04:09.616Z,76.00
2023-01-29T14:06:37.177Z,75.92
2023-01-29T14:09:04.717Z,76.10
2023-01-29T14:11:32.212Z,76.04
2023-01-29T14:13:59.697Z,76.11
2023-01-29T14:16:27.414Z,76.21
2023-01-29T14:18:55.508Z,76.32
2023-01-29T14:21:25.168Z,76.26
2023-01-29T14:23:52.747Z,76.22
2023-01-29T14:26:20.289Z,76.47
2023-01-29T14:28:47.921Z,76.56
2023-01-29T14:31:15.603Z,76.55
2023-01-29T14:33:43.594Z,76.47
2023-01-29T14:36:12.393Z,76.52
2023-01-29T14:38:40.135Z,76.62
2023-01-29T14:41:07.996Z,76.71
2023-01-29T14:43:35.563Z,76.95
2023-01-29T14:46:03.185Z,76.95
2023-01-29T14:48:30.712Z,77.23
2023-01-29T14:50:59.218Z,77.10
2023-01-29T14:53:27.102Z,76.94
2023-01-29T14:55:54.609Z,76.81
2023-01-29T14:58:22.099Z,76.88
2023-01-29T15:00:49.875Z,76.95
2023-01-29T15:03:17.419Z,76.97
2023-01-29T15:05:45.003Z,77.10
2023-01-29T15:08:12.656Z,77.11
2023-01-29T15:10:43.244Z,76.97
2023-01-29T15:13:10.845Z,76.93
2023-01-29T15:15:38.391Z,77.13
2023-01-29T15:18:06.085Z,77.18
2023-01-29T15:20:33.724Z,77.14
2023-01-29T15:23:03.276Z,77.12
2023-01-29T15:25:31.158Z,77.17
2023-01-29T15:27:58.857Z,77.19
2023-01-29T15:30:26.596Z,77.13
2023-01-29T15:32:57.251Z,77.37
2023-01-29T15:35:24.720Z,77.39
2023-01-29T15:37:52.248Z,77.52
2023-01-29T15:40:20.196Z,77.70
2023-01-29T15:42:48.747Z,77.90
2023-01-29T15:45:16.810Z,77.96
2023-01-29T15:47:44.561Z,77.95
2023-01-29T15:50:12.267Z,77.96
2023-01-29T15:52:39.887Z,78.10
2023-01-29T15:55:07.475Z,78.10
2023-01-29T15:57:35.952Z,78.17
2023-01-29T16:00:04.574Z,78.10
2023-01-29T16:02:32.115Z,78.03
2023-01-29T16:04:59.686Z,77.80
2023-01-29T16:07:27.225Z,77.61
2023-01-29T16:09:54.719Z,77.64
2023-01-29T16:12:22.252Z,77.75
2023-01-29T16:14:49.997Z,77.93
2023-01-29T16:17:17.663Z,78.08
2023-01-29T16:19:45.242Z,78.24
2023-01-29T16:22:12.764Z,78.25
2023-01-29T16:24:40.320Z,78.19
2023-01-29T16:27:07.858Z,78.20
2023-01-29T16:29:35.463Z,78.14
2023-01-29T16:32:03.222Z,78.19
2023-01-29T16:34:31.752Z,78.26
2023-01-29T16:36:59.373Z,78.46
2023-01-29T16:39:28.087Z,78.50
2023-01-29T16:41:55.672Z,78.48
2023-01-29T16:44:23.325Z,78.31
2023-01-29T16:46:54.115Z,78.34
2023-01-29T16:49:21.905Z,78.41
2023-01-29T16:51:49.634Z,78.62
2023-01-29T16:54:18.413Z,78.62
2023-01-29T16:56:45.961Z,78.70
2023-01-29T16:59:13.475Z,78.61
2023-01-29T17:01:41.341Z,78.46
2023-01-29T17:04:08.986Z,78.20
2023-01-29T17:06:36.637Z,78.22
2023-01-29T17:09:04.761Z,78.55
2023-01-29T17:11:32.638Z,78.93
2023-01-29T17:14:00.597Z,79.02
2023-01-29T17:16:28.252Z,79.13
2023-01-29T17:18:55.945Z,79.17
2023-01-29T17:21:23.662Z,79.13
2023-01-29T17:23:51.223Z,79.16
2023-01-29T17:26:18.912Z,79.09
2023-01-29T17:28:46.496Z,78.78
2023-01-29T17:31:14.224Z,79.07
2023-01-29T17:33:42.084Z,79.55
2023-01-29T17:36:09.842Z,79.91
2023-01-29T17:38:37.662Z,79.62
2023-01-29T17:41:05.388Z,79.33
2023-01-29T17:43:33.317Z,79.24
2023-01-29T17:46:00.986Z,79.08
2023-01-29T17:48:28.605Z,78.89
2023-01-29T17:50:56.132Z,78.92
2023-01-29T17:53:24.843Z,79.30
2023-01-29T17:55:54.084Z,79.63
2023-01-29T17:58:21.848Z,79.92
2023-01-29T18:00:49.390Z,80.30
2023-01-29T18:03:16.867Z,80.63
2023-01-29T18:05:44.580Z,80.84
2023-01-29T18:08:12.381Z,81.02
2023-01-29T18:10:40.107Z,80.87
2023-01-29T18:13:07.823Z,80.84
2023-01-29T18:15:35.614Z,80.99
2023-01-29T18:18:03.327Z,81.00
2023-01-29T18:20:31.039Z,81.00
2023-01-29T18:22:58.855Z,81.00
2023-01-29T18:25:26.391Z,80.96
2023-01-29T18:27:54.867Z,80.78
2023-01-29T18:30:22.678Z,80.53
2023-01-29T18:32:50.584Z,80.75
2023-01-29T18:35:18.533Z,81.09
2023-01-29T18:37:46.596Z,81.28
2023-01-29T18:40:17.259Z,81.05
2023-01-29T18:42:45.175Z,80.86
2023-01-29T18:45:13.269Z,80.72
2023-01-29T18:47:40.836Z,80.52
2023-01-29T18:50:08.650Z,80.76
2023-01-29T18:52:36.584Z,80.96
2023-01-29T18:55:04.309Z,80.45
2023-01-29T18:58:28.251Z,80.04
2023-01-29T19:00:20.093Z,80.08
2023-01-29T19:02:47.924Z,80.28
2023-01-29T19:05:16.981Z,80.33
2023-01-29T19:07:45.195Z,80.38
2023-01-29T19:10:13.061Z,80.21
2023-01-29T19:12:42.268Z,80.42
2023-01-29T19:15:09.819Z,80.60
2023-01-29T19:17:37.434Z,80.77
2023-01-29T19:20:05.220Z,80.58
2023-01-29T19:22:32.746Z,80.37
2023-01-29T19:25:00.643Z,80.39
2023-01-29T19:27:30.678Z,80.48
2023-01-29T19:29:59.451Z,80.78
2023-01-29T19:32:29.096Z,80.77
2023-01-29T19:34:57.856Z,80.98
2023-01-29T19:37:25.570Z,81.18
2023-01-29T19:39:54.049Z,81.50
2023-01-29T19:42:21.624Z,81.83
2023-01-29T19:44:51.043Z,81.90
2023-01-29T19:47:19.002Z,81.89
2023-01-29T19:49:46.900Z,81.78
2023-01-29T19:52:51.254Z,81.51
2023-01-29T19:55:19.837Z,81.56
2023-01-29T19:57:48.269Z,81.72
2023-01-29T20:00:17.663Z,81.80
2023-01-29T20:02:45.606Z,81.85
2023-01-29T20:05:13.323Z,82.08
2023-01-29T20:07:42.570Z,82.23
2023-01-29T20:10:11.722Z,82.30
2023-01-29T20:12:39.367Z,82.30
2023-01-29T20:15:07.687Z,82.37
2023-01-29T20:17:35.501Z,82.46
2023-01-29T20:20:04.135Z,82.74
2023-01-29T20:22:31.653Z,82.39
2023-01-29T20:25:00.410Z,81.72
2023-01-29T20:27:28.120Z,81.70
2023-01-29T20:29:55.964Z,81.79
2023-01-29T20:32:23.681Z,81.87
2023-01-29T20:34:52.399Z,81.73
2023-01-29T20:37:20.186Z,81.73
2023-01-29T20:39:47.912Z,81.88
2023-01-29T20:42:18.065Z,82.13
2023-01-29T20:44:45.728Z,82.20
2023-01-29T20:47:13.749Z,82.19
2023-01-29T20:49:41.422Z,82.30
2023-01-29T20:52:10.742Z,82.45
2023-01-29T20:54:38.280Z,82.58
2023-01-29T20:57:05.976Z,82.58
2023-01-29T20:59:33.855Z,82.68
2023-01-29T21:02:01.448Z,82.70
2023-01-29T21:04:31.355Z,82.77
2023-01-29T21:06:59.010Z,82.76
2023-01-29T21:09:26.711Z,82.65
2023-01-29T21:11:54.619Z,82.76
2023-01-29T21:14:22.308Z,82.81
2023-01-29T21:16:49.952Z,82.98
2023-01-29T21:19:17.608Z,82.99
2023-01-29T21:21:45.218Z,82.90
2023-01-29T21:24:13.013Z,82.92
2023-01-29T21:26:40.846Z,82.88
2023-01-29T21:29:08.494Z,82.90
2023-01-29T21:31:36.125Z,83.07
2023-01-29T21:34:05.171Z,83.21
2023-01-29T21:36:32.933Z,83.16
2023-01-29T21:39:00.550Z,82.99
2023-01-29T21:41:47.418Z,83.00
2023-01-29T21:44:15.631Z,82.92
2023-01-29T21:46:43.172Z,84.14
2023-01-29T21:49:10.737Z,83.61
2023-01-29T21:51:38.403Z,82.98
2023-01-29T21:54:05.883Z,82.87
2023-01-29T21:56:33.390Z,82.90
2023-01-29T21:59:02.278Z,82.90
2023-01-29T22:01:37.644Z,82.73
2023-01-29T22:04:08.702Z,82.59
2023-01-29T22:06:36.314Z,82.53
2023-01-29T22:09:03.935Z,82.60
2023-01-29T22:11:31.600Z,82.63
2023-01-29T22:14:01.262Z,82.66
2023-01-29T22:16:29.877Z,82.65
2023-01-29T22:18:57.422Z,82.67
2023-01-29T22:21:24.930Z,82.58
2023-01-29T22:23:52.500Z,82.46
2023-01-29T22:26:20.145Z,82.40
2023-01-29T22:28:47.718Z,82.44
2023-01-29T22:31:15.353Z,82.50
2023-01-29T22:33:42.970Z,82.54
2023-01-29T22:36:10.601Z,82.42
2023-01-29T22:38:38.192Z,82.44
2023-01-29T22:41:05.941Z,82.60
2023-01-29T22:43:33.432Z,82.54
2023-01-29T22:46:00.944Z,82.51
2023-01-29T22:48:30.639Z,82.68
2023-01-29T22:51:09.431Z,82.91
2023-01-29T22:53:37.791Z,82.99
2023-01-29T22:56:05.312Z,83.00
2023-01-29T22:58:32.785Z,83.00
2023-01-29T23:01:00.356Z,83.06
2023-01-29T23:03:27.815Z,83.10
2023-01-29T23:05:55.310Z,83.02
2023-01-29T23:08:22.881Z,83.01
2023-01-29T23:10:50.386Z,83.14
2023-01-29T23:13:18.232Z,83.26
2023-01-29T23:15:45.786Z,83.34
2023-01-29T23:18:13.441Z,83.38
2023-01-29T23:20:40.964Z,83.37
2023-01-29T23:23:08.546Z,83.45
2023-01-29T23:25:54.814Z,83.53
2023-01-29T23:28:22.492Z,83.60
2023-01-29T23:30:52.042Z,83.51
2023-01-29T23:33:21.810Z,83.45
2023-01-29T23:35:49.441Z,83.41
2023-01-29T23:38:17.104Z,83.41
2023-01-29T23:40:45.619Z,83.40
2023-01-29T23:43:13.253Z,83.40
2023-01-29T23:45:40.737Z,83.52
2023-01-29T23:48:08.242Z,83.61
2023-01-29T23:50:35.788Z,83.61
2023-01-29T23:53:03.261Z,83.50
2023-01-29T23:55:30.852Z,83.44
2023-01-29T23:57:58.372Z,83.40
